Apia Wharf, Samoa

8:14 AM WST on August 23, 2014 (GMT +1300)
Faleolo International | Change Station
CLOSE
Current Station
Airport
Location: Faleolo,
Elevation: 16 ft
Nearby Weather Stations

Elev 16 ft 13.83 °S, 172.01 °W | Updated 14 minutes ago

Scattered Clouds
Scattered Clouds
73 °F
Feels Like 73 °F
N
0
Wind Variable Wind from North

Today
High -- | Low -- °F
--% Chance of Precip.
Yesterday
High -- | Low -- °F
Precip. -- in
6:37 AM 6:21 PM
Waning Crescent, 7% visible
Pressure 29.95 in
Visibility 6.2 miles
Clouds Few 2000 ft
Scattered Clouds 28000 ft
Dew Point 72 °F
Humidity 94%
Rainfall 0.00 in
Snow Depth Not available.
UV 1 out of 12
Pollen Not available.
Air Quality Not available.
Flu Activity Not available.
METAR NSFA 221900Z 00000KT 9999 FEW020 SCT280 23/22 Q1014

More Conditions Fewer Conditions

Pressure 29.95 in
Visibility 6.2 miles
Clouds Few 2000 ft
Scattered Clouds 28000 ft
Dew Point 72 °F
Humidity 94%
Rainfall 0.00 in
Snow Depth Not available.
UV 1 out of 12
Pollen Not available.
Air Quality Not available.
Flu Activity Not available.
METAR NSFA 221900Z 00000KT 9999 FEW020 SCT280 23/22 Q1014

More Conditions Fewer Conditions

10-Day Weather Forecast

Almanac

Astronomy

Aug. 23, 2014 Rise Set
Actual Time 6:37 AM WST 6:21 PM WST
Civil Twilight 6:15 AM WST 6:43 PM WST
Nautical Twilight 5:50 AM WST 7:08 PM WST
Astronomical Twilight 5:25 AM WST 7:33 PM WST
Moon 4:33 AM WST (8/23) 4:23 PM WST (8/23)
Length of Visible Light 12h 27m
Length of Day
11h 44m
Tomorrow will be 0m 41s longer.
Waning Crescent, 7% of the Moon is Illuminated
Aug 22
Waning Crescent
Aug 25
New
Sep 2
First Quarter
Sep 8
Full
Sep 15
Last Quarter

Yesterday's Extremes

Country Highs Country Lows

Community

WunderPhotos

Upload Photos

1,746,223 photos uploaded!

Nearby

Snow Depth

Not available.

Earthquake Activity

City Distance Mag. Time & Date
No recent earthquake activity has been reported nearby.
Minimum magnitude displayed is 2.5.

Coastal Water Temperatures

Place Temperature
No Stations Reporting

Nearby Weather Stations